Hlavní strana
METAR-TAF:

METAR-TAF

Letiště :

Muscle Shoals, Alabama, Spojené státy americké

zeměpisná šířka: 34-44-38N, zeměpisná délka: 087-35-58W, výška: 167 m

Aktuální stav počasí

Zpráva byla vytvořena před 8 minutami, v 10:53 UTC
Bezvětří
Teplota 21°C
Vlhkost vzduchu 88%
Tlak 1021 hPa
Viditelnost: 16.1 km
Jasno

METAR: KMSL 241053Z AUTO 00000KT 10SM CLR 21/19 A3014 RMK AO2 SLP200 T02060189

Čas: 06:01 (11:01 UTC)

Předpověď počasí

Zpráva byla vytvořena před 5 hodinami a 41 minutami, v 05:20 UTC
Předpověď platná od 24 v 06 UTC do 25 v 06 UTC
vítr z různých směrů 2 kt
Viditelnost: 10 km
Jasno
Od 24 v 1600 UTC
Jihozápadní vítr 5 kt
Viditelnost: 10 km
Polojasno ve výšce 4000 ft
Oblačno až skoro zataženo ve výšce 7000 ft
Od 25 v 0200 UTC
vítr z různých směrů 2 kt
Viditelnost: 10 km
Skoro jasno ve výšce 10000 ft

TAF: KMSL 240520Z 2406/2506 VRB02KT P6SM SKC FM241600 22005KT P6SM SCT040 BKN070 FM250200 VRB02KT P6SM FEW100

Stav a předpovědi počasí z více než 4 000 letišť (zprávy METAR a TAF).

Červené a žluté tečky na mapě představují dostupné meteorologické stanice.

Když kurzor umístíte na tečku, zobrazí se název stanice.

Pak kliknutím zobrazíte stav a předpověď počasí.

Chcete-li změnit mapu, kliknutím na zelené tlačítko se znaménkem +mapu přiblížíte, kliknutím na zelené tlačítko se znaménkem – mapu oddálíte a kliknutím na zelené šipky přejdete na sousední mapy.


METAR-TAF: